PWSweather.com
Personal Weather Stations
Station Observations
RIVERSBEND
Rivers Bend, Heathsville, VA 22473

Rivers BendHeathsville, VA 22473

Lat: 37.87, Lon: -76.39

Elevation: 45

Station Type: Oregon Scientific WMR968

High Low Average
Temperature 78.1°F25.6°C 63.5°F17.5°C 70.6°F21.4°C
Dew Point 37.9°F3.3°C 23.2°F-4.9°C 29.1°F-1.6°C
Winds 3.0 mph 4.8 kmh Calm Calm 1.0 mph ENE1.6 kmh ENE
Wind Gusts 6.3 mph10.1 kmh -- 3.0 mph4.8 kmh
Humidity 38% 15% 23%
Pressure 30.30 in1026.1 mb 30.21 in1023.0 mb -
Precipitation 0.00 in0.0 mm - -
Hour Temp Dew Point Humidity Winds Wind Gusts Pressure Precip Precip Rate Daily Precip Total
12:09 AM 66.0°F18.9°C 31.1°F-0.5°C 27% Calm Calm -- 30.24 in1024.0 mb 0.00 in0.0 mm 0.00 in/hr0.0 mm/hr 0.00 in0.0 mm
12:19 AM 65.3°F18.5°C 32.2°F0.1°C 29% Calm Calm -- 30.24 in1024.0 mb 0.00 in0.0 mm 0.00 in/hr0.0 mm/hr 0.00 in0.0 mm
12:29 AM 64.8°F18.2°C 34.2°F1.2°C 32% Calm Calm -- 30.24 in1024.0 mb 0.00 in0.0 mm 0.00 in/hr0.0 mm/hr 0.00 in0.0 mm
12:39 AM 64.6°F18.1°C 34.9°F1.6°C 33% Calm Calm -- 30.24 in1024.0 mb 0.00 in0.0 mm 0.00 in/hr0.0 mm/hr 0.00 in0.0 mm
12:49 AM 64.8°F18.2°C 35.1°F1.7°C 33% Calm Calm -- 30.24 in1024.0 mb 0.00 in0.0 mm 0.00 in/hr0.0 mm/hr 0.00 in0.0 mm
12:59 AM 64.8°F18.2°C 35.1°F1.7°C 33% Calm Calm -- 30.24 in1024.0 mb 0.00 in0.0 mm 0.00 in/hr0.0 mm/hr 0.00 in0.0 mm
01:09 AM 64.8°F18.2°C 35.1°F1.7°C 33% Calm Calm -- 30.24 in1024.0 mb 0.00 in0.0 mm 0.00 in/hr0.0 mm/hr 0.00 in0.0 mm
01:19 AM 64.8°F18.2°C 35.1°F1.7°C 33% Calm Calm -- 30.24 in1024.0 mb 0.00 in0.0 mm 0.00 in/hr0.0 mm/hr 0.00 in0.0 mm
01:29 AM 64.9°F18.3°C 36.0°F2.2°C 34% Calm Calm -- 30.24 in1024.0 mb 0.00 in0.0 mm 0.00 in/hr0.0 mm/hr 0.00 in0.0 mm
01:39 AM 64.8°F18.2°C 35.8°F2.1°C 34% Calm Calm -- 30.24 in1024.0 mb 0.00 in0.0 mm 0.00 in/hr0.0 mm/hr 0.00 in0.0 mm
01:49 AM 64.8°F18.2°C 35.8°F2.1°C 34% Calm Calm -- 30.24 in1024.0 mb 0.00 in0.0 mm 0.00 in/hr0.0 mm/hr 0.00 in0.0 mm
01:59 AM 64.8°F18.2°C 35.8°F2.1°C 34% Calm Calm -- 30.24 in1024.0 mb 0.00 in0.0 mm 0.00 in/hr0.0 mm/hr 0.00 in0.0 mm
02:09 AM 64.4°F18.0°C 35.4°F1.9°C 34% Calm Calm -- 30.24 in1024.0 mb 0.00 in0.0 mm 0.00 in/hr0.0 mm/hr 0.00 in0.0 mm
02:19 AM 64.4°F18.0°C 35.4°F1.9°C 34% Calm Calm -- 30.24 in1024.0 mb 0.00 in0.0 mm 0.00 in/hr0.0 mm/hr 0.00 in0.0 mm
02:29 AM 64.6°F18.1°C 36.3°F2.4°C 35% Calm Calm -- 30.24 in1024.0 mb 0.00 in0.0 mm 0.00 in/hr0.0 mm/hr 0.00 in0.0 mm
02:39 AM 64.8°F18.2°C 35.8°F2.1°C 34% Calm Calm -- 30.24 in1024.0 mb 0.00 in0.0 mm 0.00 in/hr0.0 mm/hr 0.00 in0.0 mm
02:49 AM 64.8°F18.2°C 35.8°F2.1°C 34% Calm Calm -- 30.24 in1024.0 mb 0.00 in0.0 mm 0.00 in/hr0.0 mm/hr 0.00 in0.0 mm
02:59 AM 64.8°F18.2°C 35.1°F1.7°C 33% Calm Calm -- 30.24 in1024.0 mb 0.00 in0.0 mm 0.00 in/hr0.0 mm/hr 0.00 in0.0 mm
03:09 AM 64.8°F18.2°C 35.1°F1.7°C 33% Calm Calm -- 30.24 in1024.0 mb 0.00 in0.0 mm 0.00 in/hr0.0 mm/hr 0.00 in0.0 mm
03:19 AM 64.8°F18.2°C 35.1°F1.7°C 33% Calm Calm -- 30.21 in1023.0 mb 0.00 in0.0 mm 0.00 in/hr0.0 mm/hr 0.00 in0.0 mm
03:29 AM 64.8°F18.2°C 34.2°F1.2°C 32% Calm Calm -- 30.21 in1023.0 mb 0.00 in0.0 mm 0.00 in/hr0.0 mm/hr 0.00 in0.0 mm
03:39 AM 64.8°F18.2°C 35.1°F1.7°C 33% Calm Calm -- 30.24 in1024.0 mb 0.00 in0.0 mm 0.00 in/hr0.0 mm/hr 0.00 in0.0 mm
03:49 AM 64.8°F18.2°C 35.1°F1.7°C 33% Calm Calm -- 30.24 in1024.0 mb 0.00 in0.0 mm 0.00 in/hr0.0 mm/hr 0.00 in0.0 mm
03:59 AM 64.6°F18.1°C 34.9°F1.6°C 33% Calm Calm -- 30.24 in1024.0 mb 0.00 in0.0 mm 0.00 in/hr0.0 mm/hr 0.00 in0.0 mm
04:09 AM 64.2°F17.9°C 35.2°F1.8°C 34% Calm Calm -- 30.24 in1024.0 mb 0.00 in0.0 mm 0.00 in/hr0.0 mm/hr 0.00 in0.0 mm
04:19 AM 64.0°F17.8°C 35.1°F1.7°C 34% Calm Calm -- 30.24 in1024.0 mb 0.00 in0.0 mm 0.00 in/hr0.0 mm/hr 0.00 in0.0 mm
04:29 AM 64.0°F17.8°C 35.8°F2.1°C 35% Calm Calm -- 30.24 in1024.0 mb 0.00 in0.0 mm 0.00 in/hr0.0 mm/hr 0.00 in0.0 mm
04:39 AM 64.2°F17.9°C 36.0°F2.2°C 35% Calm Calm -- 30.21 in1023.0 mb 0.00 in0.0 mm 0.00 in/hr0.0 mm/hr 0.00 in0.0 mm
04:49 AM 64.2°F17.9°C 36.0°F2.2°C 35% Calm Calm -- 30.21 in1023.0 mb 0.00 in0.0 mm 0.00 in/hr0.0 mm/hr 0.00 in0.0 mm
04:59 AM 64.2°F17.9°C 35.2°F1.8°C 34% Calm Calm -- 30.21 in1023.0 mb 0.00 in0.0 mm 0.00 in/hr0.0 mm/hr 0.00 in0.0 mm
05:09 AM 64.0°F17.8°C 35.1°F1.7°C 34% Calm Calm -- 30.21 in1023.0 mb 0.00 in0.0 mm 0.00 in/hr0.0 mm/hr 0.00 in0.0 mm
05:19 AM 64.0°F17.8°C 35.8°F2.1°C 35% Calm Calm -- 30.24 in1024.0 mb 0.00 in0.0 mm 0.00 in/hr0.0 mm/hr 0.00 in0.0 mm
05:29 AM 63.5°F17.5°C 36.1°F2.3°C 36% Calm Calm -- 30.24 in1024.0 mb 0.00 in0.0 mm 0.00 in/hr0.0 mm/hr 0.00 in0.0 mm
05:39 AM 63.5°F17.5°C 37.4°F3.0°C 38% Calm Calm -- 30.24 in1024.0 mb 0.00 in0.0 mm 0.00 in/hr0.0 mm/hr 0.00 in0.0 mm
05:49 AM 64.0°F17.8°C 37.9°F3.3°C 38% Calm Calm -- 30.24 in1024.0 mb 0.00 in0.0 mm 0.00 in/hr0.0 mm/hr 0.00 in0.0 mm
05:59 AM 64.6°F18.1°C 37.8°F3.2°C 37% Calm Calm -- 30.24 in1024.0 mb 0.00 in0.0 mm 0.00 in/hr0.0 mm/hr 0.00 in0.0 mm
06:09 AM 65.1°F18.4°C 37.6°F3.1°C 36% Calm Calm -- 30.24 in1024.0 mb 0.00 in0.0 mm 0.00 in/hr0.0 mm/hr 0.00 in0.0 mm
06:19 AM 65.5°F18.6°C 37.0°F2.8°C 35% Calm Calm -- 30.24 in1024.0 mb 0.00 in0.0 mm 0.00 in/hr0.0 mm/hr 0.00 in0.0 mm
06:30 AM 65.8°F18.8°C 33.6°F0.9°C 30% Calm Calm 2.7 mph4.3 kmh 30.24 in1024.0 mb 0.00 in0.0 mm 0.00 in/hr0.0 mm/hr 0.00 in0.0 mm
06:40 AM 66.2°F19.0°C 29.3°F-1.5°C 25% Calm Calm 2.7 mph4.3 kmh 30.24 in1024.0 mb 0.00 in0.0 mm 0.00 in/hr0.0 mm/hr 0.00 in0.0 mm
06:50 AM 66.4°F19.1°C 28.6°F-1.9°C 24% Calm Calm 2.2 mph3.5 kmh 30.24 in1024.0 mb 0.00 in0.0 mm 0.00 in/hr0.0 mm/hr 0.00 in0.0 mm
07:00 AM 66.7°F19.3°C 28.8°F-1.8°C 24% Calm Calm -- 30.24 in1024.0 mb 0.00 in0.0 mm 0.00 in/hr0.0 mm/hr 0.00 in0.0 mm
07:10 AM 66.9°F19.4°C 27.9°F-2.3°C 23% Calm Calm 4.0 mph6.4 kmh 30.24 in1024.0 mb 0.00 in0.0 mm 0.00 in/hr0.0 mm/hr 0.00 in0.0 mm
07:20 AM 67.3°F19.6°C 28.2°F-2.1°C 23% 1.0 mph NE1.6 kmh NE 4.9 mph7.9 kmh 30.27 in1025.1 mb 0.00 in0.0 mm 0.00 in/hr0.0 mm/hr 0.00 in0.0 mm
07:30 AM 67.5°F19.7°C 27.3°F-2.6°C 22% 1.0 mph NE1.6 kmh NE 3.6 mph5.8 kmh 30.27 in1025.1 mb 0.00 in0.0 mm 0.00 in/hr0.0 mm/hr 0.00 in0.0 mm
07:40 AM 67.5°F19.7°C 28.4°F-2.0°C 23% 1.0 mph NE1.6 kmh NE 4.0 mph6.4 kmh 30.27 in1025.1 mb 0.00 in0.0 mm 0.00 in/hr0.0 mm/hr 0.00 in0.0 mm
07:50 AM 67.8°F19.9°C 27.5°F-2.5°C 22% 1.0 mph NE1.6 kmh NE 4.0 mph6.4 kmh 30.27 in1025.1 mb 0.00 in0.0 mm 0.00 in/hr0.0 mm/hr 0.00 in0.0 mm
08:00 AM 68.0°F20.0°C 27.7°F-2.4°C 22% 2.0 mph NNE3.2 kmh NNE 3.6 mph5.8 kmh 30.27 in1025.1 mb 0.00 in0.0 mm 0.00 in/hr0.0 mm/hr 0.00 in0.0 mm
08:10 AM 68.0°F20.0°C 25.5°F-3.6°C 20% 2.0 mph NNE3.2 kmh NNE 3.1 mph5.0 kmh 30.27 in1025.1 mb 0.00 in0.0 mm 0.00 in/hr0.0 mm/hr 0.00 in0.0 mm
08:20 AM 68.4°F20.2°C 25.7°F-3.5°C 20% 2.0 mph NNE3.2 kmh NNE 3.6 mph5.8 kmh 30.27 in1025.1 mb 0.00 in0.0 mm 0.00 in/hr0.0 mm/hr 0.00 in0.0 mm
08:30 AM 68.7°F20.4°C 26.1°F-3.3°C 20% 2.0 mph NNE3.2 kmh NNE 3.6 mph5.8 kmh 30.27 in1025.1 mb 0.00 in0.0 mm 0.00 in/hr0.0 mm/hr 0.00 in0.0 mm
08:40 AM 68.9°F20.5°C 28.4°F-2.0°C 22% 2.0 mph NE3.2 kmh NE 4.0 mph6.4 kmh 30.27 in1025.1 mb 0.00 in0.0 mm 0.00 in/hr0.0 mm/hr 0.00 in0.0 mm
08:50 AM 69.1°F20.6°C 26.2°F-3.2°C 20% 1.0 mph NE1.6 kmh NE 3.6 mph5.8 kmh 30.27 in1025.1 mb 0.00 in0.0 mm 0.00 in/hr0.0 mm/hr 0.00 in0.0 mm
09:00 AM 69.6°F20.9°C 26.8°F-2.9°C 20% 1.0 mph NNE1.6 kmh NNE 4.0 mph6.4 kmh 30.27 in1025.1 mb 0.00 in0.0 mm 0.00 in/hr0.0 mm/hr 0.00 in0.0 mm
09:10 AM 70.2°F21.2°C 23.4°F-4.8°C 17% 2.0 mph NNE3.2 kmh NNE 3.6 mph5.8 kmh 30.27 in1025.1 mb 0.00 in0.0 mm 0.00 in/hr0.0 mm/hr 0.00 in0.0 mm
09:20 AM 71.1°F21.7°C 24.1°F-4.4°C 17% 2.0 mph NNE3.2 kmh NNE 4.0 mph6.4 kmh 30.27 in1025.1 mb 0.00 in0.0 mm 0.00 in/hr0.0 mm/hr 0.00 in0.0 mm
09:30 AM 71.8°F22.1°C 23.2°F-4.9°C 16% 2.0 mph NNE3.2 kmh NNE 4.0 mph6.4 kmh 30.27 in1025.1 mb 0.00 in0.0 mm 0.00 in/hr0.0 mm/hr 0.00 in0.0 mm
09:40 AM 72.7°F22.6°C 23.9°F-4.5°C 16% 2.0 mph NE3.2 kmh NE 3.6 mph5.8 kmh 30.27 in1025.1 mb 0.00 in0.0 mm 0.00 in/hr0.0 mm/hr 0.00 in0.0 mm
10:01 AM 73.2°F22.9°C 24.3°F-4.3°C 16% 2.0 mph NE3.2 kmh NE 4.9 mph7.9 kmh 30.30 in1026.1 mb 0.00 in0.0 mm 0.00 in/hr0.0 mm/hr 0.00 in0.0 mm
10:11 AM 73.6°F23.1°C 24.6°F-4.1°C 16% 2.0 mph NNE3.2 kmh NNE 4.0 mph6.4 kmh 30.30 in1026.1 mb 0.00 in0.0 mm 0.00 in/hr0.0 mm/hr 0.00 in0.0 mm
10:21 AM 73.9°F23.3°C 25.0°F-3.9°C 16% 2.0 mph NNE3.2 kmh NNE 4.0 mph6.4 kmh 30.30 in1026.1 mb 0.00 in0.0 mm 0.00 in/hr0.0 mm/hr 0.00 in0.0 mm
10:31 AM 73.9°F23.3°C 25.0°F-3.9°C 16% 2.0 mph NNE3.2 kmh NNE 4.0 mph6.4 kmh 30.27 in1025.1 mb 0.00 in0.0 mm 0.00 in/hr0.0 mm/hr 0.00 in0.0 mm
10:41 AM 76.6°F24.8°C 25.5°F-3.6°C 15% 2.0 mph NE3.2 kmh NE 3.6 mph5.8 kmh 30.27 in1025.1 mb 0.00 in0.0 mm 0.00 in/hr0.0 mm/hr 0.00 in0.0 mm
10:51 AM 75.4°F24.1°C 24.4°F-4.2°C 15% 2.0 mph NE3.2 kmh NE 4.0 mph6.4 kmh 30.30 in1026.1 mb 0.00 in0.0 mm 0.00 in/hr0.0 mm/hr 0.00 in0.0 mm
11:01 AM 76.6°F24.8°C 25.5°F-3.6°C 15% 2.0 mph E3.2 kmh E 3.6 mph5.8 kmh 30.30 in1026.1 mb 0.00 in0.0 mm 0.00 in/hr0.0 mm/hr 0.00 in0.0 mm
11:11 AM 75.9°F24.4°C 25.0°F-3.9°C 15% 2.0 mph NE3.2 kmh NE 4.0 mph6.4 kmh 30.30 in1026.1 mb 0.00 in0.0 mm 0.00 in/hr0.0 mm/hr 0.00 in0.0 mm
11:21 AM 77.2°F25.1°C 25.9°F-3.4°C 15% 2.0 mph E3.2 kmh E 3.6 mph5.8 kmh 30.30 in1026.1 mb 0.00 in0.0 mm 0.00 in/hr0.0 mm/hr 0.00 in0.0 mm
11:31 AM 77.7°F25.4°C 26.4°F-3.1°C 15% 2.0 mph ENE3.2 kmh ENE 3.6 mph5.8 kmh 30.30 in1026.1 mb 0.00 in0.0 mm 0.00 in/hr0.0 mm/hr 0.00 in0.0 mm
11:41 AM 77.7°F25.4°C 26.4°F-3.1°C 15% 2.0 mph E3.2 kmh E 3.6 mph5.8 kmh 30.30 in1026.1 mb 0.00 in0.0 mm 0.00 in/hr0.0 mm/hr 0.00 in0.0 mm
11:51 AM 76.6°F24.8°C 25.5°F-3.6°C 15% 2.0 mph ENE3.2 kmh ENE 3.6 mph5.8 kmh 30.30 in1026.1 mb 0.00 in0.0 mm 0.00 in/hr0.0 mm/hr 0.00 in0.0 mm
12:01 PM 77.0°F25.0°C 25.9°F-3.4°C 15% 2.0 mph NE3.2 kmh NE 4.0 mph6.4 kmh 30.30 in1026.1 mb 0.00 in0.0 mm 0.00 in/hr0.0 mm/hr 0.00 in0.0 mm
12:11 PM 76.6°F24.8°C 25.5°F-3.6°C 15% 2.0 mph NNE3.2 kmh NNE 4.0 mph6.4 kmh 30.30 in1026.1 mb 0.00 in0.0 mm 0.00 in/hr0.0 mm/hr 0.00 in0.0 mm
12:21 PM 77.4°F25.2°C 26.1°F-3.3°C 15% 2.0 mph NE3.2 kmh NE 4.0 mph6.4 kmh 30.30 in1026.1 mb 0.00 in0.0 mm 0.00 in/hr0.0 mm/hr 0.00 in0.0 mm
12:31 PM 76.6°F24.8°C 25.5°F-3.6°C 15% 2.0 mph NE3.2 kmh NE 4.0 mph6.4 kmh 30.27 in1025.1 mb 0.00 in0.0 mm 0.00 in/hr0.0 mm/hr 0.00 in0.0 mm
12:41 PM 77.2°F25.1°C 25.9°F-3.4°C 15% 2.0 mph NE3.2 kmh NE 3.6 mph5.8 kmh 30.27 in1025.1 mb 0.00 in0.0 mm 0.00 in/hr0.0 mm/hr 0.00 in0.0 mm
12:51 PM 77.9°F25.5°C 26.6°F-3.0°C 15% 2.0 mph NE3.2 kmh NE 4.0 mph6.4 kmh 30.27 in1025.1 mb 0.00 in0.0 mm 0.00 in/hr0.0 mm/hr 0.00 in0.0 mm
01:01 PM 77.4°F25.2°C 26.1°F-3.3°C 15% 2.0 mph NE3.2 kmh NE 3.6 mph5.8 kmh 30.27 in1025.1 mb 0.00 in0.0 mm 0.00 in/hr0.0 mm/hr 0.00 in0.0 mm
01:11 PM 77.7°F25.4°C 26.4°F-3.1°C 15% 2.0 mph E3.2 kmh E 4.9 mph7.9 kmh 30.27 in1025.1 mb 0.00 in0.0 mm 0.00 in/hr0.0 mm/hr 0.00 in0.0 mm
01:21 PM 78.1°F25.6°C 26.6°F-3.0°C 15% 2.0 mph E3.2 kmh E 4.0 mph6.4 kmh 30.30 in1026.1 mb 0.00 in0.0 mm 0.00 in/hr0.0 mm/hr 0.00 in0.0 mm
01:31 PM 77.7°F25.4°C 26.4°F-3.1°C 15% 2.0 mph SE3.2 kmh SE 4.9 mph7.9 kmh 30.30 in1026.1 mb 0.00 in0.0 mm 0.00 in/hr0.0 mm/hr 0.00 in0.0 mm
01:41 PM 77.7°F25.4°C 26.4°F-3.1°C 15% 2.0 mph SE3.2 kmh SE 4.0 mph6.4 kmh 30.30 in1026.1 mb 0.00 in0.0 mm 0.00 in/hr0.0 mm/hr 0.00 in0.0 mm
01:51 PM 77.0°F25.0°C 25.9°F-3.4°C 15% 3.0 mph ESE4.8 kmh ESE 4.0 mph6.4 kmh 30.30 in1026.1 mb 0.00 in0.0 mm 0.00 in/hr0.0 mm/hr 0.00 in0.0 mm
02:01 PM 77.2°F25.1°C 25.9°F-3.4°C 15% 2.0 mph E3.2 kmh E 5.4 mph8.7 kmh 30.30 in1026.1 mb 0.00 in0.0 mm 0.00 in/hr0.0 mm/hr 0.00 in0.0 mm
02:11 PM 77.0°F25.0°C 25.9°F-3.4°C 15% 2.0 mph E3.2 kmh E 4.0 mph6.4 kmh 30.30 in1026.1 mb 0.00 in0.0 mm 0.00 in/hr0.0 mm/hr 0.00 in0.0 mm
02:21 PM 77.2°F25.1°C 25.9°F-3.4°C 15% 2.0 mph E3.2 kmh E 4.0 mph6.4 kmh 30.30 in1026.1 mb 0.00 in0.0 mm 0.00 in/hr0.0 mm/hr 0.00 in0.0 mm
02:31 PM 76.8°F24.9°C 25.7°F-3.5°C 15% 2.0 mph E3.2 kmh E 4.0 mph6.4 kmh 30.27 in1025.1 mb 0.00 in0.0 mm 0.00 in/hr0.0 mm/hr 0.00 in0.0 mm
02:42 PM 76.8°F24.9°C 25.7°F-3.5°C 15% 2.0 mph E3.2 kmh E 5.8 mph9.3 kmh 30.27 in1025.1 mb 0.00 in0.0 mm 0.00 in/hr0.0 mm/hr 0.00 in0.0 mm
02:52 PM 76.8°F24.9°C 25.7°F-3.5°C 15% 2.0 mph ENE3.2 kmh ENE 4.0 mph6.4 kmh 30.27 in1025.1 mb 0.00 in0.0 mm 0.00 in/hr0.0 mm/hr 0.00 in0.0 mm
03:02 PM 76.3°F24.6°C 25.2°F-3.8°C 15% 2.0 mph E3.2 kmh E 5.4 mph8.7 kmh 30.30 in1026.1 mb 0.00 in0.0 mm 0.00 in/hr0.0 mm/hr 0.00 in0.0 mm
03:12 PM 75.6°F24.2°C 24.6°F-4.1°C 15% 2.0 mph E3.2 kmh E 6.3 mph10.1 kmh 30.30 in1026.1 mb 0.00 in0.0 mm 0.00 in/hr0.0 mm/hr 0.00 in0.0 mm
03:22 PM 75.4°F24.1°C 24.4°F-4.2°C 15% 2.0 mph SE3.2 kmh SE 5.4 mph8.7 kmh 30.27 in1025.1 mb 0.00 in0.0 mm 0.00 in/hr0.0 mm/hr 0.00 in0.0 mm
03:32 PM 75.0°F23.9°C 25.7°F-3.5°C 16% 2.0 mph SE3.2 kmh SE 5.8 mph9.3 kmh 30.27 in1025.1 mb 0.00 in0.0 mm 0.00 in/hr0.0 mm/hr 0.00 in0.0 mm
03:42 PM 75.6°F24.2°C 24.6°F-4.1°C 15% 2.0 mph SE3.2 kmh SE 4.0 mph6.4 kmh 30.27 in1025.1 mb 0.00 in0.0 mm 0.00 in/hr0.0 mm/hr 0.00 in0.0 mm
03:52 PM 75.6°F24.2°C 24.6°F-4.1°C 15% 2.0 mph SE3.2 kmh SE 4.0 mph6.4 kmh 30.27 in1025.1 mb 0.00 in0.0 mm 0.00 in/hr0.0 mm/hr 0.00 in0.0 mm
04:02 PM 75.2°F24.0°C 24.4°F-4.2°C 15% 2.0 mph SE3.2 kmh SE 4.0 mph6.4 kmh 30.27 in1025.1 mb 0.00 in0.0 mm 0.00 in/hr0.0 mm/hr 0.00 in0.0 mm
04:12 PM 75.2°F24.0°C 24.4°F-4.2°C 15% 2.0 mph SE3.2 kmh SE 4.0 mph6.4 kmh 30.27 in1025.1 mb 0.00 in0.0 mm 0.00 in/hr0.0 mm/hr 0.00 in0.0 mm
04:22 PM 75.2°F24.0°C 24.4°F-4.2°C 15% 2.0 mph SE3.2 kmh SE 4.0 mph6.4 kmh 30.27 in1025.1 mb 0.00 in0.0 mm 0.00 in/hr0.0 mm/hr 0.00 in0.0 mm
04:32 PM 75.0°F23.9°C 25.7°F-3.5°C 16% 2.0 mph SE3.2 kmh SE 3.6 mph5.8 kmh 30.27 in1025.1 mb 0.00 in0.0 mm 0.00 in/hr0.0 mm/hr 0.00 in0.0 mm
04:42 PM 74.7°F23.7°C 25.5°F-3.6°C 16% 2.0 mph ESE3.2 kmh ESE 3.6 mph5.8 kmh 30.27 in1025.1 mb 0.00 in0.0 mm 0.00 in/hr0.0 mm/hr 0.00 in0.0 mm
04:52 PM 74.5°F23.6°C 25.3°F-3.7°C 16% 2.0 mph E3.2 kmh E 3.1 mph5.0 kmh 30.27 in1025.1 mb 0.00 in0.0 mm 0.00 in/hr0.0 mm/hr 0.00 in0.0 mm
05:02 PM 74.5°F23.6°C 25.3°F-3.7°C 16% 2.0 mph SE3.2 kmh SE 3.6 mph5.8 kmh 30.27 in1025.1 mb 0.00 in0.0 mm 0.00 in/hr0.0 mm/hr 0.00 in0.0 mm
05:12 PM 74.1°F23.4°C 25.0°F-3.9°C 16% 2.0 mph ESE3.2 kmh ESE 3.1 mph5.0 kmh 30.27 in1025.1 mb 0.00 in0.0 mm 0.00 in/hr0.0 mm/hr 0.00 in0.0 mm
05:22 PM 73.9°F23.3°C 25.0°F-3.9°C 16% 2.0 mph ESE3.2 kmh ESE 3.1 mph5.0 kmh 30.27 in1025.1 mb 0.00 in0.0 mm 0.00 in/hr0.0 mm/hr 0.00 in0.0 mm
05:32 PM 73.8°F23.2°C 24.8°F-4.0°C 16% 1.0 mph ESE1.6 kmh ESE 3.1 mph5.0 kmh 30.27 in1025.1 mb 0.00 in0.0 mm 0.00 in/hr0.0 mm/hr 0.00 in0.0 mm
05:42 PM 73.8°F23.2°C 24.8°F-4.0°C 16% 1.0 mph ESE1.6 kmh ESE 3.6 mph5.8 kmh 30.27 in1025.1 mb 0.00 in0.0 mm 0.00 in/hr0.0 mm/hr 0.00 in0.0 mm
05:52 PM 73.4°F23.0°C 24.4°F-4.2°C 16% 1.0 mph E1.6 kmh E 4.9 mph7.9 kmh 30.27 in1025.1 mb 0.00 in0.0 mm 0.00 in/hr0.0 mm/hr 0.00 in0.0 mm
06:02 PM 73.2°F22.9°C 24.3°F-4.3°C 16% 1.0 mph E1.6 kmh E 2.7 mph4.3 kmh 30.27 in1025.1 mb 0.00 in0.0 mm 0.00 in/hr0.0 mm/hr 0.00 in0.0 mm
06:12 PM 73.0°F22.8°C 24.3°F-4.3°C 16% 1.0 mph ESE1.6 kmh ESE 2.7 mph4.3 kmh 30.27 in1025.1 mb 0.00 in0.0 mm 0.00 in/hr0.0 mm/hr 0.00 in0.0 mm
06:22 PM 72.7°F22.6°C 23.9°F-4.5°C 16% Calm Calm 2.7 mph4.3 kmh 30.27 in1025.1 mb 0.00 in0.0 mm 0.00 in/hr0.0 mm/hr 0.00 in0.0 mm
06:32 PM 72.5°F22.5°C 23.7°F-4.6°C 16% Calm Calm 2.2 mph3.5 kmh 30.27 in1025.1 mb 0.00 in0.0 mm 0.00 in/hr0.0 mm/hr 0.00 in0.0 mm
06:42 PM 72.1°F22.3°C 23.5°F-4.7°C 16% Calm Calm 2.7 mph4.3 kmh 30.27 in1025.1 mb 0.00 in0.0 mm 0.00 in/hr0.0 mm/hr 0.00 in0.0 mm
06:52 PM 72.0°F22.2°C 23.4°F-4.8°C 16% Calm Calm -- 30.27 in1025.1 mb 0.00 in0.0 mm 0.00 in/hr0.0 mm/hr 0.00 in0.0 mm
07:02 PM 71.4°F21.9°C 24.3°F-4.3°C 17% Calm Calm 3.1 mph5.0 kmh 30.27 in1025.1 mb 0.00 in0.0 mm 0.00 in/hr0.0 mm/hr 0.00 in0.0 mm
07:12 PM 71.2°F21.8°C 24.3°F-4.3°C 17% Calm Calm 2.2 mph3.5 kmh 30.27 in1025.1 mb 0.00 in0.0 mm 0.00 in/hr0.0 mm/hr 0.00 in0.0 mm
07:22 PM 70.7°F21.5°C 23.7°F-4.6°C 17% Calm Calm -- 30.27 in1025.1 mb 0.00 in0.0 mm 0.00 in/hr0.0 mm/hr 0.00 in0.0 mm
07:32 PM 70.3°F21.3°C 23.5°F-4.7°C 17% Calm Calm -- 30.27 in1025.1 mb 0.00 in0.0 mm 0.00 in/hr0.0 mm/hr 0.00 in0.0 mm
07:42 PM 70.0°F21.1°C 23.2°F-4.9°C 17% Calm Calm -- 30.27 in1025.1 mb 0.00 in0.0 mm 0.00 in/hr0.0 mm/hr 0.00 in0.0 mm
07:52 PM 69.6°F20.9°C 22.8°F-5.1°C 17% Calm Calm -- 30.27 in1025.1 mb 0.00 in0.0 mm 0.00 in/hr0.0 mm/hr 0.00 in0.0 mm
08:02 PM 69.1°F20.6°C 22.5°F-5.3°C 17% Calm Calm -- 30.27 in1025.1 mb 0.00 in0.0 mm 0.00 in/hr0.0 mm/hr 0.00 in0.0 mm
08:12 PM 68.9°F20.5°C 22.3°F-5.4°C 17% Calm Calm -- 30.27 in1025.1 mb 0.00 in0.0 mm 0.00 in/hr0.0 mm/hr 0.00 in0.0 mm
08:22 PM 68.7°F20.4°C 22.1°F-5.5°C 17% Calm Calm -- 30.27 in1025.1 mb 0.00 in0.0 mm 0.00 in/hr0.0 mm/hr 0.00 in0.0 mm
08:32 PM 68.4°F20.2°C 21.9°F-5.6°C 17% Calm Calm -- 30.27 in1025.1 mb 0.00 in0.0 mm 0.00 in/hr0.0 mm/hr 0.00 in0.0 mm
08:42 PM 68.4°F20.2°C 21.9°F-5.6°C 17% Calm Calm -- 30.27 in1025.1 mb 0.00 in0.0 mm 0.00 in/hr0.0 mm/hr 0.00 in0.0 mm
08:52 PM 68.4°F20.2°C 21.9°F-5.6°C 17% Calm Calm -- 30.27 in1025.1 mb 0.00 in0.0 mm 0.00 in/hr0.0 mm/hr 0.00 in0.0 mm
09:02 PM 68.2°F20.1°C 21.7°F-5.7°C 17% Calm Calm -- 30.27 in1025.1 mb 0.00 in0.0 mm 0.00 in/hr0.0 mm/hr 0.00 in0.0 mm
09:12 PM 68.2°F20.1°C 21.7°F-5.7°C 17% Calm Calm -- 30.27 in1025.1 mb 0.00 in0.0 mm 0.00 in/hr0.0 mm/hr 0.00 in0.0 mm
09:22 PM 68.0°F20.0°C 21.6°F-5.8°C 17% Calm Calm -- 30.30 in1026.1 mb 0.00 in0.0 mm 0.00 in/hr0.0 mm/hr 0.00 in0.0 mm
09:32 PM 67.8°F19.9°C 21.4°F-5.9°C 17% Calm Calm -- 30.27 in1025.1 mb 0.00 in0.0 mm 0.00 in/hr0.0 mm/hr 0.00 in0.0 mm
09:43 PM 67.6°F19.8°C 21.2°F-6.0°C 17% Calm Calm -- 30.27 in1025.1 mb 0.00 in0.0 mm 0.00 in/hr0.0 mm/hr 0.00 in0.0 mm
09:53 PM 67.6°F19.8°C 21.2°F-6.0°C 17% Calm Calm -- 30.30 in1026.1 mb 0.00 in0.0 mm 0.00 in/hr0.0 mm/hr 0.00 in0.0 mm
10:03 PM 67.5°F19.7°C 21.2°F-6.0°C 17% Calm Calm -- 30.30 in1026.1 mb 0.00 in0.0 mm 0.00 in/hr0.0 mm/hr 0.00 in0.0 mm
10:13 PM 67.3°F19.6°C 21.0°F-6.1°C 17% Calm Calm -- 30.30 in1026.1 mb 0.00 in0.0 mm 0.00 in/hr0.0 mm/hr 0.00 in0.0 mm
10:23 PM 67.3°F19.6°C 21.0°F-6.1°C 17% Calm Calm -- 30.30 in1026.1 mb 0.00 in0.0 mm 0.00 in/hr0.0 mm/hr 0.00 in0.0 mm
10:33 PM 66.9°F19.4°C 20.7°F-6.3°C 17% Calm Calm -- 30.30 in1026.1 mb 0.00 in0.0 mm 0.00 in/hr0.0 mm/hr 0.00 in0.0 mm
10:43 PM 66.7°F19.3°C 20.5°F-6.4°C 17% Calm Calm -- 30.30 in1026.1 mb 0.00 in0.0 mm 0.00 in/hr0.0 mm/hr 0.00 in0.0 mm
10:53 PM 65.1°F18.4°C 20.5°F-6.4°C 18% Calm Calm -- 30.30 in1026.1 mb 0.00 in0.0 mm 0.00 in/hr0.0 mm/hr 0.00 in0.0 mm
11:03 PM 64.4°F18.0°C 19.9°F-6.7°C 18% Calm Calm -- 30.30 in1026.1 mb 0.00 in0.0 mm 0.00 in/hr0.0 mm/hr 0.00 in0.0 mm
11:13 PM 64.0°F17.8°C 23.4°F-4.8°C 21% Calm Calm -- 30.30 in1026.1 mb 0.00 in0.0 mm 0.00 in/hr0.0 mm/hr 0.00 in0.0 mm
11:23 PM 63.9°F17.7°C 23.2°F-4.9°C 21% Calm Calm -- 30.30 in1026.1 mb 0.00 in0.0 mm 0.00 in/hr0.0 mm/hr 0.00 in0.0 mm
11:33 PM 64.0°F17.8°C 26.6°F-3.0°C 24% Calm Calm -- 30.30 in1026.1 mb 0.00 in0.0 mm 0.00 in/hr0.0 mm/hr 0.00 in0.0 mm
11:43 PM 64.4°F18.0°C 26.8°F-2.9°C 24% Calm Calm -- 30.30 in1026.1 mb 0.00 in0.0 mm 0.00 in/hr0.0 mm/hr 0.00 in0.0 mm
11:53 PM 64.4°F18.0°C 26.8°F-2.9°C 24% Calm Calm -- 30.27 in1025.1 mb 0.00 in0.0 mm 0.00 in/hr0.0 mm/hr 0.00 in0.0 mm